This is the latest recevied weather packets stored in our database for station/object HA3YA-WX. If no packets are shown the sender has not sent any weather packets the latest 10 day(s).
| Time | Temp. | Humidity | Pressure | Rain* | Wind** | Luminosity | Snow |
|---|---|---|---|---|---|---|---|
| 1788325285 | 16.11° C | 94% | 1008.1 hPa | - | - | - | - |
| 1788300684 | 18.89° C | 83% | 1007 hPa | - | - | - | - |
| 1788300085 | 19.44° C | 85% | 1007 hPa | - | - | - | - |
| 1788299485 | 19.44° C | 87% | 1007 hPa | - | - | - | - |
| 1788293484 | 21.11° C | 81% | 1007.2 hPa | - | - | - | - |
| 1788292284 | 21.11° C | 81% | 1007.2 hPa | - | - | - | - |
| 1788291085 | 21.67° C | 78% | 1007.1 hPa | - | - | - | - |
| 1788290485 | 21.67° C | 79% | 1007.1 hPa | - | - | - | - |
| 1788287484 | 22.78° C | 83% | 1006 hPa | - | - | - | - |
| 1788286884 | 22.78° C | 82% | 1006 hPa | - | - | - | - |
| 1788286284 | 22.78° C | 81% | 1006.7 hPa | - | - | - | - |
| 1788285085 | 23.33° C | 78% | 1006 hPa | - | - | - | - |
| 1788284485 | 23.89° C | 77% | 1006 hPa | - | - | - | - |
| 1788283884 | 24.44° C | 75% | 1006 hPa | - | - | - | - |
| 1788283284 | 25° C | 73% | 1006 hPa | - | - | - | - |
| 1788282684 | 25.56° C | 70% | 1006 hPa | - | - | - | - |
| 1788282084 | 26.11° C | 69% | 1006.5 hPa | - | - | - | - |
| 1788280885 | 26.67° C | 73% | 1006.5 hPa | - | - | - | - |
| 1788280284 | 26.67° C | 70% | 1006.5 hPa | - | - | - | - |
| 1788279684 | 26.11° C | 67% | 1006.5 hPa | - | - | - | - |
| 1788278484 | 26.67° C | 70% | 1006 hPa | - | - | - | - |
| 1788276684 | 27.22° C | 65% | 1006.5 hPa | - | - | - | - |
| 1788276084 | 27.78° C | 60% | 1006.5 hPa | - | - | - | - |
| 1788272484 | 30.56° C | 55% | 1006 hPa | - | - | - | - |
| 1788271884 | 30.56° C | 58% | 1006 hPa | - | - | - | - |
* Rain since midnight (hover to see other rain measurements)
** Current wind speed in m/s (hover to see current wind gust speed)